Nearby METAR Reports

 

KFNL - Ft Collins/Lovel, Colorado, USA
Distance from station: NW 10mi, 16km
Updated: Tue, 22-Jan-2019 9:56am MST
Light snow, Overcast
Light snow, Overcast
 Wind from NNW
Wind: NNW 16 mph , 26 km/h, Gust: 25 mph , 41 km/h
Temperature: 28°F , -2°C
Wind Chill: 16°F , -9°C
Dew Point: 16°F , -9°C
Humidity: 59%
Barometer: 30.11 inHg , 1019.6 hPa
Summary: Light Snow
Clouds: Overcast
Visibility: 9 miles , 14 km
Cloud details: Mostly cloudy 3500 ft
Overcast 4400 ft
2019/01/22 16:56 KFNL 221656Z AUTO 34014G22KT 9SM -SN BKN035 OVC044 M02/M09 A3011 RMK AO2 SLP223 T10221094 FZRANO PNO $
KGXY - Greeley/Weld, Colorado, USA
Distance from station: ENE 14mi, 23km
Updated: Tue, 22-Jan-2019 9:56am MST
Mostly cloudy
Mostly cloudy
 Wind from NNW
Wind: NNW 23 mph , 37 km/h, Gust: 33 mph , 54 km/h
Temperature: 28°F , -2°C
Wind Chill: 14°F , -10°C
Dew Point: 18°F , -8°C
Humidity: 64%
Barometer: 30.12 inHg , 1020 hPa
Clouds: Mostly cloudy
Visibility: 10 miles , 16 km
Cloud details: Partly cloudy 3600 ft
Mostly cloudy 4600 ft
Mostly cloudy 5000 ft
2019/01/22 16:56 KGXY 221656Z AUTO 34020G29KT 10SM SCT036 BKN046 BKN050 M02/M08 A3012 RMK AO2 PK WND 35029/1652 SNE19 SLP244 P0000 T10171083 FZRANO
 
KLMO - Longmont/Vbrand, Colorado, USA
Distance from station: SW 20mi, 32km
Updated: Tue, 22-Jan-2019 10:55am MST
Overcast
Overcast
 Wind from NNE
Wind: NNE 18 mph , 30 km/h, Gust: 29 mph , 46 km/h
Temperature: 36°F , 2°C
Wind Chill: 26°F , -3°C
Dew Point: 12°F , -11°C
Humidity: 38%
Barometer: 30.13 inHg , 1020.3 hPa
Clouds: Overcast
Visibility: 10 miles , 16 km
Cloud details: Partly cloudy 4800 ft
Overcast 6000 ft
2019/01/22 17:55 KLMO 221755Z AUTO 03016G25KT 10SM SCT048 OVC060 02/M11 A3013 RMK AO2 T00151109
KEIK - Erie Muni, Colorado, USA
Distance from station: SSW 25mi, 40km
Updated: Tue, 22-Jan-2019 10:54am MST
Clear
Clear
 Wind from N
Wind: N 13 mph , 20 km/h, Gust: 17 mph , 28 km/h
Temperature: 30°F , -1°C
Wind Chill: 20°F , -7°C
Dew Point: 19°F , -7°C
Humidity: 64%
Barometer: 30.18 inHg , 1022 hPa
Clouds: Clear
Visibility: 10 miles , 16 km
2019/01/22 17:54 KEIK 221754Z AUTO 01011G15KT 10SM CLR M01/M07 A3018 RMK AO2 T10121071
 
KBDU - Boulder Muni, Colorado, USA
Distance from station: SW 29mi, 47km
Updated: Tue, 22-Jan-2019 10:54am MST
Overcast
Overcast
 Wind from NNE
Wind: NNE 7 mph , 11 km/h
Temperature: 32°F , 0°C
Wind Chill: 25°F , -4°C
Dew Point: 14°F , -10°C
Humidity: 47%
Barometer: 30.11 inHg , 1019.6 hPa
Clouds: Overcast
Visibility: 10 miles , 16 km
Cloud details: Partly cloudy 5000 ft
Mostly cloudy 6000 ft
Overcast 10000 ft
2019/01/22 17:54 KBDU 221754Z AUTO 02006KT 10SM SCT050 BKN060 OVC100 00/M10 A3011 RMK AO2
KBJC - Broomfield/Jeffc, Colorado, USA
Distance from station: SSW 33mi, 54km
Updated: Tue, 22-Jan-2019 9:45am MST
Mostly cloudy
Mostly cloudy
 Wind from N
Wind: N 15 mph , 24 km/h
Temperature: 27°F , -3°C
Wind Chill: 15°F , -9°C
Dew Point: 19°F , -7°C
Humidity: 74%
Barometer: 30.09 inHg , 1019 hPa
Clouds: Mostly cloudy
Visibility: 3 miles , 5 km
Cloud details: Partly cloudy 2200 ft
Partly cloudy 2800 ft
Mostly cloudy 6000 ft
2019/01/22 16:45 KBJC 221645Z 36013KT 3SM SCT022 SCT028 BKN060 M03/M07 A3009
 
KDEN - Denver (dia), Colorado, USA
Distance from station: SSE 37mi, 59km
Updated: Tue, 22-Jan-2019 10:53am MST
Light snow, Mist, Overcast
Light snow, Mist, Overcast
 Wind from NNW
Wind: NNW 28 mph , 44 km/h, Gust: 32 mph , 52 km/h
Temperature: 25°F , -4°C
Wind Chill: 9°F , -13°C
Dew Point: 19°F , -7°C
Humidity: 80%
Barometer: 30.10 inHg , 1019.3 hPa
Summary: Light snow, Mist
Clouds: Overcast
Visibility: 2 1/2 miles , 4 km
Cloud details: Few Clouds 1200 ft
Mostly cloudy 2800 ft
Overcast 3600 ft
2019/01/22 17:53 KDEN 221753Z 34024G28KT 2 1/2SM -SN BR FEW012 BKN028 OVC036 M04/M07 A3010 RMK AO2 PK WND 34029/1654 SLP226 P0000 60001 T10441067 11039 21056 52017
KFTG - Denver F. Range, Colorado, USA
Distance from station: SSE 43mi, 69km
Updated: Tue, 22-Jan-2019 9:50am MST
Light snow, Overcast
Light snow, Overcast
 Wind from NNW
Wind: NNW 23 mph , 37 km/h, Gust: 32 mph , 52 km/h
Temperature: 23°F , -5°C
Wind Chill: 7°F , -14°C
Dew Point: 19°F , -7°C
Humidity: 86%
Barometer: 30.09 inHg , 1019 hPa
Summary: Light Snow
Clouds: Overcast
Visibility: 2 miles , 3 km
Cloud details: Mostly cloudy 1500 ft
Overcast 3000 ft
2019/01/22 16:50 KFTG 221650Z 33020G28KT 2SM -SN BKN015 OVC030 M05/M07 A3009
 
KBKF - Buckley Angb/Den, Colorado, USA
Distance from station: S 44mi, 71km
Updated: Tue, 22-Jan-2019 10:20am MST
Light snow, Overcast
Light snow, Overcast
 Wind from N
Wind: N 20 mph , 31 km/h
Temperature: 23°F , -5°C
Wind Chill: 8°F , -13°C
Dew Point: 21°F , -6°C
Humidity: 93%
Barometer: 30.09 inHg , 1019 hPa
Summary: Light Snow
Clouds: Overcast
Visibility: 6 miles , 10 km
Cloud details: Partly cloudy 1500 ft
Mostly cloudy 2500 ft
Overcast 3500 ft
2019/01/22 17:20 KBKF 221720Z 35017KT 6SM -SN SCT015 BKN025 OVC035 M05/M06 A3009 RMK AO2A
KCAG - Craig, Colorado, USA
Distance from station: ESE 227mi, 365km
Updated: Tue, 22-Jan-2019 10:53am MST
Partly cloudy
Partly cloudy
 Wind from calm
Wind: Calm
Temperature: 21°F , -6°C
Dew Point: 10°F , -12°C
Humidity: 63%
Barometer: 30.19 inHg , 1022.4 hPa
Clouds: Partly cloudy
Visibility: 10 miles , 16 km
Cloud details: Partly cloudy 6000 ft
2019/01/22 17:53 KCAG 221753Z AUTO 00000KT 10SM SCT060 M06/M12 A3019 RMK AO2 SLP269 T10611117 11061 21100 51024 TSNO
 
KHDN - Hayden/Yampa, Colorado, USA
Distance from station: E 211mi, 339km
Updated: Tue, 22-Jan-2019 9:56am MST
Partly cloudy
Partly cloudy
 Wind from SW
Wind: SW 8 mph , 13 km/h
Temperature: 18°F , -8°C
Wind Chill: 8°F , -13°C
Dew Point: 9°F , -13°C
Humidity: 68%
Barometer: 30.16 inHg , 1021.3 hPa
Clouds: Partly cloudy
Visibility: 10 miles , 16 km
Cloud details: Partly cloudy 10000 ft
2019/01/22 16:56 KHDN 221656Z AUTO 23007KT 10SM SCT100 M08/M13 A3016 RMK AO2 SLPNO T10831128 FZRANO
KSBS - Steamboat Spring, Colorado, USA
Distance from station: E 186mi, 299km
Updated: Tue, 22-Jan-2019 10:35am MST
Overcast
Overcast
 Wind from calm
Wind: Calm
Temperature: 16°F , -9°C
Dew Point: 5°F , -15°C
Humidity: 62%
Barometer: 30.14 inHg , 1020.7 hPa
Clouds: Overcast
Visibility: 7 miles , 11 km
Cloud details: Mostly cloudy 2200 ft
Mostly cloudy 3100 ft
Overcast 3700 ft
2019/01/22 17:35 KSBS 221735Z AUTO 00000KT 7SM BKN022 BKN031 OVC037 M09/M15 A3014 RMK AO1 T10941147
 
KDWX - Dixon, Wyoming, USA
Distance from station: N 278mi, 447km
Updated: Tue, 22-Jan-2019 10:35am MST
Mostly cloudy
Mostly cloudy
 Wind from ENE
Wind: ENE 14 mph , 22 km/h
Temperature: 19°F , -7°C
Wind Chill: 5°F , -15°C
Dew Point: 10°F , -12°C
Humidity: 68%
Barometer: 30.20 inHg , 1022.7 hPa
Clouds: Mostly cloudy
Visibility: 10 miles , 16 km
Cloud details: Mostly cloudy 4800 ft
2019/01/22 17:35 KDWX 221735Z AUTO 06012KT 10SM BKN048 M07/M12 A3020 RMK AO2 T10681118
KEEO - Meeker, Colorado, USA
Distance from station: SSW 269mi, 433km
Updated: Tue, 22-Jan-2019 10:53am MST
Clear
Clear
 Wind from NNE
Wind: NNE 7 mph , 11 km/h
Temperature: 25°F , -4°C
Wind Chill: 17°F , -8°C
Dew Point: 9°F , -13°C
Humidity: 50%
Barometer: 30.18 inHg , 1022 hPa
Clouds: Clear
Visibility: 10 miles , 16 km
2019/01/22 17:53 KEEO 221753Z AUTO 02006KT 10SM CLR M04/M13 A3018 RMK AO2 SLP251 T10441128 11044 21094 51027